Time;durP1;ratioP1;P1;durP2;ratioP2;P2;SDS_P1;SDS_P2;PMS_P1;PMS_P2;Temp;Humidity;BMP_temperature;BMP_pressure;BME280_temperature;BME280_humidity;BME280_pressure;Samples;Min_cycle;Max_cycle;Signal;HPM_P1;HPM_P2
2023/08/28 00:00:04;;;;;;;2.67;1.10;;;15.10;99.90;;;;;;4958088;28;20031;-81
2023/08/28 00:02:29;;;;;;;2.88;0.90;;;15.00;99.90;;;;;;4963627;28;20038;-81
2023/08/28 00:04:58;;;;;;;2.55;1.40;;;14.90;99.90;;;;;;4962171;28;20405;-82
2023/08/28 00:07:23;;;;;;;3.15;1.23;;;14.90;99.90;;;;;;4963117;28;20097;-82
2023/08/28 00:09:55;;;;;;;4.53;1.33;;;14.90;99.90;;;;;;4963546;28;20034;-82
2023/08/28 00:12:21;;;;;;;3.47;1.23;;;14.80;99.90;;;;;;4963823;28;20159;-80
2023/08/28 00:14:56;;;;;;;2.10;1.40;;;14.80;99.90;;;;;;4960894;28;20142;-81
2023/08/28 00:17:22;;;;;;;4.07;1.15;;;14.80;99.90;;;;;;4964713;28;20035;-81
2023/08/28 00:19:56;;;;;;;4.35;1.70;;;14.80;99.90;;;;;;4965359;28;20031;-80
2023/08/28 00:22:22;;;;;;;4.73;2.03;;;14.70;99.90;;;;;;4961827;28;20127;-81
2023/08/28 00:24:48;;;;;;;7.22;1.63;;;14.70;99.90;;;;;;4964676;28;20725;-81
2023/08/28 00:27:14;;;;;;;4.05;2.13;;;14.80;99.90;;;;;;4963694;28;20118;-80
2023/08/28 00:29:39;;;;;;;3.70;1.75;;;14.70;99.90;;;;;;4967351;28;20034;-81
2023/08/28 00:32:05;;;;;;;3.05;1.52;;;14.80;99.90;;;;;;4967412;28;20493;-82
2023/08/28 00:34:31;;;;;;;6.53;1.90;;;14.80;99.90;;;;;;4967165;28;20104;-80
2023/08/28 00:36:56;;;;;;;2.95;1.95;;;14.70;99.90;;;;;;4968202;28;20022;-81
2023/08/28 00:39:22;;;;;;;4.38;2.10;;;14.70;99.90;;;;;;4964155;28;20053;-80
2023/08/28 00:41:56;;;;;;;3.58;1.77;;;14.70;99.90;;;;;;4967636;28;20481;-84
2023/08/28 00:44:22;;;;;;;10.43;2.45;;;14.70;99.90;;;;;;4956728;28;20401;-80
2023/08/28 00:46:47;;;;;;;7.75;2.90;;;14.70;99.90;;;;;;4961074;28;20031;-80
2023/08/28 00:49:13;;;;;;;4.57;2.53;;;14.80;99.90;;;;;;4957732;28;20033;-81
2023/08/28 00:51:40;;;;;;;7.65;2.22;;;14.80;99.90;;;;;;4967709;28;20037;-82
2023/08/28 00:54:07;;;;;;;5.22;2.90;;;14.80;99.90;;;;;;4968007;28;20070;-81
2023/08/28 00:56:36;;;;;;;7.68;2.75;;;14.80;99.90;;;;;;4966060;28;20033;-84
2023/08/28 00:59:03;;;;;;;6.68;2.00;;;14.70;99.90;;;;;;4965029;28;20117;-80
2023/08/28 01:01:29;;;;;;;7.43;2.05;;;14.80;99.90;;;;;;4956392;28;20074;-80
2023/08/28 01:03:57;;;;;;;2.38;1.58;;;14.80;99.90;;;;;;4966854;28;20051;-79
2023/08/28 01:06:31;;;;;;;5.25;1.30;;;14.80;99.90;;;;;;4963117;28;20045;-80
2023/08/28 01:09:13;;;;;;;1.95;1.30;;;14.80;99.90;;;;;;4963730;28;20480;-80
2023/08/28 01:12:06;;;;;;;4.07;2.00;;;14.70;99.90;;;;;;4962400;28;20395;-81
2023/08/28 01:14:49;;;;;;;7.65;1.95;;;14.80;99.90;;;;;;4940217;28;20046;-84
2023/08/28 01:17:17;;;;;;;3.33;1.77;;;14.60;99.90;;;;;;4962470;28;20035;-81
2023/08/28 01:19:44;;;;;;;1.60;1.13;;;14.70;99.90;;;;;;4965437;28;20037;-81
2023/08/28 01:22:34;;;;;;;2.22;1.60;;;14.60;99.90;;;;;;4965011;28;20047;-84
2023/08/28 01:25:10;;;;;;;6.63;1.55;;;14.60;99.90;;;;;;4959603;28;20031;-79
2023/08/28 01:27:37;;;;;;;1.77;1.60;;;14.60;99.90;;;;;;4959227;28;20026;-82
2023/08/28 01:30:11;;;;;;;1.70;1.30;;;14.60;99.90;;;;;;4956646;28;20035;-81
2023/08/28 01:32:41;;;;;;;7.47;1.75;;;14.60;99.90;;;;;;4956708;28;20062;-82
2023/08/28 01:35:20;;;;;;;2.72;1.52;;;14.60;99.90;;;;;;4957107;28;20035;-80
2023/08/28 01:38:19;;;;;;;2.90;1.35;;;14.50;99.90;;;;;;4960413;28;20027;-82
2023/08/28 01:40:54;;;;;;;5.00;1.38;;;14.50;99.90;;;;;;4950760;28;20635;-82
2023/08/28 01:43:23;;;;;;;10.63;2.05;;;14.50;99.90;;;;;;4962702;28;20121;-81
2023/08/28 01:45:51;;;;;;;11.13;2.67;;;14.50;99.90;;;;;;4955565;28;20739;-82
2023/08/28 01:48:17;;;;;;;3.03;1.50;;;14.50;99.90;;;;;;4961073;28;20032;-80
2023/08/28 01:50:42;;;;;;;9.02;1.30;;;14.40;99.90;;;;;;4956299;28;20034;-84
2023/08/28 01:53:08;;;;;;;1.42;1.33;;;14.40;99.90;;;;;;4962820;28;20108;-81
2023/08/28 01:55:45;;;;;;;3.83;1.67;;;14.30;99.90;;;;;;4962540;28;20031;-80
2023/08/28 01:58:12;;;;;;;6.55;1.73;;;14.30;99.90;;;;;;4965277;28;20034;-83
2023/08/28 02:00:37;;;;;;;2.35;1.15;;;14.20;99.90;;;;;;4950382;28;20031;-79
2023/08/28 02:03:05;;;;;;;5.68;1.75;;;14.10;99.90;;;;;;4951725;28;20038;-79
2023/08/28 02:05:30;;;;;;;5.38;1.95;;;14.00;99.90;;;;;;4961050;28;20307;-79
2023/08/28 02:08:05;;;;;;;3.97;1.40;;;13.90;99.90;;;;;;4959198;28;20038;-81
2023/08/28 02:10:31;;;;;;;5.77;1.77;;;13.80;99.90;;;;;;4965808;28;20023;-81
2023/08/28 02:13:03;;;;;;;13.35;2.13;;;13.80;99.90;;;;;;4965549;28;20055;-81
2023/08/28 02:15:29;;;;;;;4.28;2.20;;;13.70;99.90;;;;;;4963957;28;20279;-79
2023/08/28 02:18:05;;;;;;;3.65;2.10;;;13.70;99.90;;;;;;4965225;28;20485;-81
2023/08/28 02:20:31;;;;;;;6.57;1.95;;;13.70;99.90;;;;;;4955997;28;20112;-81
2023/08/28 02:23:00;;;;;;;4.60;2.38;;;13.70;99.90;;;;;;4962348;28;20154;-82
2023/08/28 02:25:26;;;;;;;8.48;2.60;;;13.70;99.90;;;;;;4966043;28;20035;-79
2023/08/28 02:28:01;;;;;;;7.68;2.80;;;13.70;99.90;;;;;;4958611;28;20492;-79
2023/08/28 02:30:26;;;;;;;8.02;2.78;;;13.60;99.90;;;;;;4963781;28;20031;-80
2023/08/28 02:33:01;;;;;;;7.15;2.22;;;13.60;99.90;;;;;;4955598;28;20342;-80
2023/08/28 02:35:26;;;;;;;2.37;1.70;;;13.50;99.90;;;;;;4959166;28;20033;-82
2023/08/28 02:37:55;;;;;;;3.95;1.88;;;13.50;99.90;;;;;;4952635;28;20031;-81
2023/08/28 02:40:20;;;;;;;3.60;1.50;;;13.50;99.90;;;;;;4965937;28;20031;-81
2023/08/28 02:42:47;;;;;;;3.53;1.67;;;13.50;99.90;;;;;;4958043;28;20651;-80
2023/08/28 02:45:13;;;;;;;6.25;1.75;;;13.60;99.90;;;;;;4963195;28;20148;-80
2023/08/28 02:47:40;;;;;;;5.70;1.95;;;13.60;99.90;;;;;;4962540;28;20515;-80
2023/08/28 02:50:06;;;;;;;5.28;1.77;;;13.50;99.90;;;;;;4962961;28;20543;-83
2023/08/28 02:52:31;;;;;;;4.30;2.22;;;13.50;99.90;;;;;;4966614;28;20086;-79
2023/08/28 02:55:00;;;;;;;3.60;1.40;;;13.50;99.90;;;;;;4965670;28;20019;-81
2023/08/28 02:57:25;;;;;;;5.75;1.40;;;13.50;99.90;;;;;;4962971;28;20384;-80
2023/08/28 02:59:51;;;;;;;7.40;2.85;;;13.50;99.90;;;;;;4957363;28;20041;-80
2023/08/28 03:02:17;;;;;;;4.30;2.22;;;13.50;99.90;;;;;;4954619;28;20677;-80
2023/08/28 03:04:42;;;;;;;3.83;2.58;;;13.50;99.90;;;;;;4965808;28;20097;-81
2023/08/28 03:07:08;;;;;;;5.32;2.03;;;13.60;99.90;;;;;;4959853;28;20373;-82
2023/08/28 03:09:33;;;;;;;7.47;2.15;;;13.50;99.90;;;;;;4964335;28;20081;-81
2023/08/28 03:12:05;;;;;;;4.80;2.08;;;13.60;99.90;;;;;;4961820;28;20030;-80
2023/08/28 03:14:31;;;;;;;2.20;1.50;;;13.60;99.90;;;;;;4943146;28;20055;-81
2023/08/28 03:17:00;;;;;;;6.28;2.00;;;13.60;99.90;;;;;;4924662;28;20477;-80
2023/08/28 03:19:25;;;;;;;8.63;2.38;;;13.60;99.90;;;;;;4946106;28;20059;-82
2023/08/28 03:21:51;;;;;;;6.18;2.42;;;13.70;99.90;;;;;;4948578;28;20079;-80
2023/08/28 03:24:16;;;;;;;6.78;2.65;;;13.70;99.90;;;;;;4954409;28;20039;-81
2023/08/28 03:26:42;;;;;;;4.57;2.22;;;13.70;99.90;;;;;;4953867;28;20058;-81
2023/08/28 03:29:17;;;;;;;6.28;2.55;;;13.70;99.90;;;;;;4949936;28;20031;-81
2023/08/28 03:31:42;;;;;;;5.47;2.20;;;13.70;99.90;;;;;;4944186;28;20127;-81
2023/08/28 03:34:11;;;;;;;6.30;2.08;;;13.70;99.90;;;;;;4943036;28;20065;-80
2023/08/28 03:36:36;;;;;;;6.85;2.17;;;13.60;99.90;;;;;;4940000;28;20526;-80
2023/08/28 03:39:05;;;;;;;6.13;2.55;;;13.60;99.90;;;;;;4952672;28;20023;-81
2023/08/28 03:41:30;;;;;;;8.77;2.90;;;13.60;99.90;;;;;;4924205;29;20061;-81
2023/08/28 03:43:56;;;;;;;9.63;3.35;;;13.60;99.90;;;;;;4945468;28;20115;-83
2023/08/28 03:46:21;;;;;;;6.25;2.50;;;13.60;99.90;;;;;;4935133;28;20345;-83
2023/08/28 03:48:47;;;;;;;7.65;2.85;;;13.60;99.90;;;;;;4943851;28;20058;-81
2023/08/28 03:51:16;;;;;;;5.38;2.88;;;13.60;99.90;;;;;;4948060;28;20027;-81
2023/08/28 03:53:42;;;;;;;5.50;2.75;;;13.70;99.90;;;;;;4942355;28;20086;-80
2023/08/28 03:56:07;;;;;;;1.90;1.63;;;13.70;99.90;;;;;;4957855;28;20389;-82
2023/08/28 03:58:36;;;;;;;2.75;1.88;;;13.70;99.90;;;;;;4946935;28;20523;-81
2023/08/28 04:01:03;;;;;;;5.88;2.45;;;13.70;99.90;;;;;;4947269;28;20090;-82
2023/08/28 04:03:28;;;;;;;2.92;2.00;;;13.70;99.90;;;;;;4950066;28;20035;-81
2023/08/28 04:05:54;;;;;;;3.80;1.75;;;13.70;99.90;;;;;;4946190;28;20387;-82
2023/08/28 04:08:19;;;;;;;4.25;1.45;;;13.70;99.90;;;;;;4945956;28;20027;-83
2023/08/28 04:10:47;;;;;;;2.10;1.90;;;13.70;99.90;;;;;;4947813;28;20661;-82
2023/08/28 04:13:16;;;;;;;5.35;1.90;;;13.70;99.90;;;;;;4953243;28;20049;-82
2023/08/28 04:15:50;;;;;;;4.85;1.90;;;13.70;99.90;;;;;;4966722;28;20035;-82
2023/08/28 04:18:17;;;;;;;4.70;1.92;;;13.60;99.90;;;;;;4960218;28;20028;-83
2023/08/28 04:20:43;;;;;;;7.07;2.30;;;13.60;99.90;;;;;;4969220;28;20489;-81
2023/08/28 04:23:08;;;;;;;3.17;1.95;;;13.60;99.90;;;;;;4964972;28;20050;-82
2023/08/28 04:25:36;;;;;;;5.00;2.42;;;13.50;99.90;;;;;;4960917;28;20034;-83
2023/08/28 04:28:01;;;;;;;4.93;2.47;;;13.50;99.90;;;;;;4960195;28;20034;-80
2023/08/28 04:30:27;;;;;;;6.30;2.67;;;13.40;99.90;;;;;;4960216;28;20637;-81
2023/08/28 04:32:53;;;;;;;4.00;2.65;;;13.30;99.90;;;;;;4955055;28;20035;-79
2023/08/28 04:35:19;;;;;;;3.75;2.60;;;13.30;99.90;;;;;;4959395;28;20074;-80
2023/08/28 04:37:50;;;;;;;9.50;3.47;;;13.30;99.90;;;;;;4961267;28;20038;-85
2023/08/28 04:40:15;;;;;;;5.93;3.72;;;13.30;99.90;;;;;;4963240;28;20089;-81
2023/08/28 04:42:44;;;;;;;10.50;3.40;;;13.30;99.90;;;;;;4963960;28;20145;-80
2023/08/28 04:45:09;;;;;;;10.07;2.92;;;13.40;99.90;;;;;;4961089;28;20036;-81
2023/08/28 04:47:35;;;;;;;4.15;3.25;;;13.30;99.90;;;;;;4965670;28;20023;-81
2023/08/28 04:50:01;;;;;;;8.48;3.42;;;13.40;99.90;;;;;;4959743;28;20037;-84
2023/08/28 04:52:29;;;;;;;8.20;3.92;;;13.40;99.90;;;;;;4964557;28;20572;-81
2023/08/28 04:54:54;;;;;;;5.95;3.63;;;13.40;99.90;;;;;;4961014;28;20171;-82
2023/08/28 04:57:20;;;;;;;8.15;4.28;;;13.50;99.90;;;;;;4960991;28;20027;-78
2023/08/28 04:59:46;;;;;;;8.35;4.75;;;13.50;99.90;;;;;;4963878;28;20026;-80
2023/08/28 05:02:12;;;;;;;6.97;4.05;;;13.50;99.90;;;;;;4964818;28;20534;-81
2023/08/28 05:04:37;;;;;;;7.57;4.22;;;13.50;99.90;;;;;;4962930;28;20023;-80
2023/08/28 05:07:05;;;;;;;9.15;4.00;;;13.60;99.90;;;;;;4948642;28;20118;-87
2023/08/28 05:09:30;;;;;;;9.27;3.47;;;13.60;99.90;;;;;;4958675;28;20081;-82
2023/08/28 05:12:08;;;;;;;7.10;4.00;;;13.70;99.90;;;;;;4962953;28;20043;-84
2023/08/28 05:14:34;;;;;;;4.78;3.50;;;13.70;99.90;;;;;;4964652;28;20406;-80
2023/08/28 05:17:06;;;;;;;4.28;3.47;;;13.70;99.90;;;;;;4972970;28;20086;-81
2023/08/28 05:19:31;;;;;;;6.80;3.40;;;13.80;99.90;;;;;;4959680;28;20019;-82
2023/08/28 05:22:03;;;;;;;5.53;3.05;;;13.80;99.90;;;;;;4961598;28;20127;-81
2023/08/28 05:24:28;;;;;;;5.10;2.58;;;13.80;99.90;;;;;;4960186;28;20169;-83
2023/08/28 05:26:54;;;;;;;11.23;2.70;;;13.90;99.90;;;;;;4961958;28;20043;-82
2023/08/28 05:29:19;;;;;;;3.97;2.40;;;13.90;99.90;;;;;;4964109;28;20031;-81
2023/08/28 05:31:45;;;;;;;4.40;2.50;;;13.90;99.90;;;;;;4958488;28;20043;-81
2023/08/28 05:34:11;;;;;;;10.15;3.25;;;14.00;99.90;;;;;;4963113;28;20031;-80
2023/08/28 05:36:36;;;;;;;4.68;2.70;;;14.00;99.90;;;;;;4960821;28;20062;-80
2023/08/28 05:39:08;;;;;;;5.55;3.28;;;14.00;99.90;;;;;;4962177;28;20023;-80
2023/08/28 05:41:33;;;;;;;4.57;3.10;;;14.10;99.90;;;;;;4964518;28;20631;-81
2023/08/28 05:44:05;;;;;;;3.47;2.80;;;14.00;99.90;;;;;;4957343;28;20113;-81
2023/08/28 05:46:31;;;;;;;4.50;2.88;;;14.10;99.90;;;;;;4963192;28;20054;-80
2023/08/28 05:49:07;;;;;;;4.25;2.58;;;14.10;99.90;;;;;;4959047;28;20128;-81
2023/08/28 05:51:35;;;;;;;8.38;2.65;;;14.10;99.90;;;;;;4959992;28;20057;-85
2023/08/28 05:54:07;;;;;;;5.00;2.80;;;14.10;99.90;;;;;;4962233;28;20023;-80
2023/08/28 05:56:32;;;;;;;6.90;2.63;;;14.10;99.90;;;;;;4957333;28;20027;-81
2023/08/28 05:58:58;;;;;;;7.32;2.30;;;14.10;99.90;;;;;;4961308;28;20023;-80
2023/08/28 06:01:23;;;;;;;4.85;2.42;;;14.20;99.90;;;;;;4962765;28;20039;-81
2023/08/28 06:03:55;;;;;;;5.90;2.33;;;14.20;99.90;;;;;;4969764;28;20041;-82
2023/08/28 06:06:22;;;;;;;5.15;2.58;;;14.20;99.90;;;;;;4959865;28;20416;-82
2023/08/28 06:08:47;;;;;;;2.97;2.22;;;14.20;99.90;;;;;;4956233;28;20110;-82
2023/08/28 06:11:13;;;;;;;6.15;2.55;;;14.30;99.90;;;;;;4961267;28;20102;-81
2023/08/28 06:13:39;;;;;;;3.67;2.45;;;14.40;99.90;;;;;;4959305;28;20078;-82
2023/08/28 06:16:11;;;;;;;4.10;2.53;;;14.30;99.90;;;;;;4963151;28;20034;-80
2023/08/28 06:18:37;;;;;;;9.27;2.90;;;14.50;99.90;;;;;;4962372;28;20026;-81
2023/08/28 06:21:02;;;;;;;3.47;2.17;;;14.50;99.90;;;;;;4959538;28;20499;-82
2023/08/28 06:23:29;;;;;;;4.32;2.10;;;14.50;99.90;;;;;;4957131;28;20094;-82
2023/08/28 06:25:55;;;;;;;4.00;2.65;;;14.60;99.90;;;;;;4963871;28;20097;-81
2023/08/28 06:28:20;;;;;;;4.45;2.42;;;14.60;99.90;;;;;;4960685;28;20468;-83
2023/08/28 06:30:46;;;;;;;5.60;2.20;;;14.70;99.90;;;;;;4963509;28;20034;-81
2023/08/28 06:33:11;;;;;;;4.07;2.42;;;14.70;99.90;;;;;;4960919;28;20041;-82
2023/08/28 06:35:37;;;;;;;2.42;2.15;;;14.80;99.90;;;;;;4961477;28;20090;-81
2023/08/28 06:38:13;;;;;;;4.03;2.33;;;14.80;99.90;;;;;;4962278;28;20023;-81
2023/08/28 06:40:39;;;;;;;3.30;2.38;;;14.90;99.90;;;;;;4958880;28;20031;-80
2023/08/28 06:43:08;;;;;;;2.45;2.08;;;14.90;99.90;;;;;;4966467;28;20039;-81
2023/08/28 06:45:33;;;;;;;4.07;2.30;;;15.00;99.90;;;;;;4964239;28;20035;-82
2023/08/28 06:48:00;;;;;;;2.13;1.80;;;15.00;99.90;;;;;;4958838;28;20034;-82
2023/08/28 06:50:26;;;;;;;3.88;2.10;;;15.10;99.90;;;;;;4966615;28;20023;-81
2023/08/28 06:52:51;;;;;;;5.28;2.55;;;15.10;99.90;;;;;;4966924;28;20061;-81
2023/08/28 06:55:17;;;;;;;6.30;2.88;;;15.10;99.90;;;;;;4964600;28;20496;-80
2023/08/28 06:57:42;;;;;;;5.40;2.38;;;15.20;99.90;;;;;;4963925;28;20078;-81
2023/08/28 07:00:15;;;;;;;13.88;2.35;;;15.20;99.90;;;;;;4961098;28;20110;-81
2023/08/28 07:02:40;;;;;;;6.07;2.28;;;15.20;99.90;;;;;;4960839;28;20595;-82
2023/08/28 07:05:15;;;;;;;2.35;1.98;;;15.20;99.90;;;;;;4953288;28;20114;-81
2023/08/28 07:07:41;;;;;;;3.33;2.07;;;15.20;99.90;;;;;;4965891;28;20037;-84
2023/08/28 07:10:07;;;;;;;5.88;2.28;;;15.20;99.90;;;;;;4963862;28;20031;-82
2023/08/28 07:12:34;;;;;;;4.15;3.00;;;15.20;99.90;;;;;;4963744;28;21479;-85
2023/08/28 07:15:18;;;;;;;5.97;2.67;;;15.30;99.90;;;;;;4962148;28;20043;-80
2023/08/28 07:17:43;;;;;;;4.88;2.58;;;15.30;99.90;;;;;;4958939;28;20118;-82
2023/08/28 07:20:12;;;;;;;7.03;2.92;;;15.30;99.90;;;;;;4964853;28;20455;-81
2023/08/28 07:22:37;;;;;;;2.90;2.28;;;15.30;99.90;;;;;;4960965;28;20048;-82
2023/08/28 07:25:12;;;;;;;8.45;2.50;;;15.30;99.90;;;;;;4966629;28;20027;-81
2023/08/28 07:27:37;;;;;;;5.30;2.60;;;15.30;99.90;;;;;;4970798;28;20083;-81
2023/08/28 07:30:10;;;;;;;4.85;2.60;;;15.40;99.90;;;;;;4970127;28;20027;-82
2023/08/28 07:32:36;;;;;;;5.65;2.97;;;15.40;99.90;;;;;;4970815;28;20174;-80
2023/08/28 07:35:08;;;;;;;4.15;2.72;;;15.40;99.90;;;;;;4970340;28;20121;-81
2023/08/28 07:37:34;;;;;;;4.53;2.30;;;15.40;99.90;;;;;;4969029;28;20449;-82
2023/08/28 07:40:09;;;;;;;4.55;2.60;;;15.40;99.90;;;;;;4970013;28;20511;-81
2023/08/28 07:42:35;;;;;;;2.92;1.67;;;15.40;99.90;;;;;;4969179;28;20121;-81
2023/08/28 07:45:01;;;;;;;5.15;2.20;;;15.50;99.90;;;;;;4966451;28;20043;-82
2023/08/28 07:47:27;;;;;;;3.40;2.13;;;15.50;99.90;;;;;;4967052;28;20034;-81
2023/08/28 07:49:53;;;;;;;7.95;2.58;;;15.50;99.90;;;;;;4967013;28;20027;-81
2023/08/28 07:52:19;;;;;;;3.20;2.22;;;15.50;99.90;;;;;;4967840;28;20039;-81
2023/08/28 07:54:45;;;;;;;6.82;2.28;;;15.50;99.90;;;;;;4966598;28;20061;-81
2023/08/28 07:57:11;;;;;;;3.80;1.95;;;15.60;99.90;;;;;;4963703;28;20049;-85
2023/08/28 07:59:36;;;;;;;4.07;1.83;;;15.60;99.90;;;;;;4962025;28;20162;-82
2023/08/28 08:02:04;;;;;;;3.13;1.95;;;15.50;99.90;;;;;;4967399;28;20045;-80
2023/08/28 08:04:31;;;;;;;2.97;1.75;;;15.60;99.90;;;;;;4966419;28;20033;-81
2023/08/28 08:07:05;;;;;;;4.70;1.67;;;15.60;99.90;;;;;;4970059;28;20031;-81
2023/08/28 08:09:31;;;;;;;5.03;1.80;;;15.60;99.90;;;;;;4966690;28;21032;-81
2023/08/28 08:11:56;;;;;;;7.60;2.03;;;15.70;99.90;;;;;;4966416;28;20361;-82
2023/08/28 08:14:23;;;;;;;3.35;2.00;;;15.70;99.90;;;;;;4966115;28;20515;-84
2023/08/28 08:16:48;;;;;;;7.35;2.53;;;15.80;99.90;;;;;;4956982;28;20031;-81
2023/08/28 08:19:15;;;;;;;5.20;1.70;;;15.80;99.90;;;;;;4960265;28;20022;-82
2023/08/28 08:21:40;;;;;;;3.95;2.10;;;15.80;99.90;;;;;;4961841;28;20559;-81
2023/08/28 08:24:09;;;;;;;3.30;1.70;;;15.80;99.90;;;;;;4963221;28;20030;-82
2023/08/28 08:26:34;;;;;;;2.13;1.88;;;15.80;99.90;;;;;;4963467;28;20482;-82
2023/08/28 08:29:00;;;;;;;2.15;1.42;;;15.80;99.90;;;;;;4961568;28;20058;-83
2023/08/28 08:31:25;;;;;;;3.42;1.20;;;15.80;99.90;;;;;;4966540;28;20027;-82
2023/08/28 08:33:51;;;;;;;2.58;1.33;;;15.80;99.90;;;;;;4965186;28;20030;-82
2023/08/28 08:36:17;;;;;;;4.57;2.33;;;15.80;99.90;;;;;;4957084;28;20035;-81
2023/08/28 08:38:43;;;;;;;15.75;3.22;;;15.80;99.90;;;;;;4962113;28;20030;-81
2023/08/28 08:41:10;;;;;;;11.45;1.90;;;15.80;99.90;;;;;;4957516;28;20023;-82
2023/08/28 08:43:38;;;;;;;5.43;1.70;;;15.80;99.90;;;;;;4951401;28;20038;-82
2023/08/28 08:46:07;;;;;;;3.25;1.90;;;15.80;99.90;;;;;;4955678;28;20041;-82
2023/08/28 08:48:38;;;;;;;2.80;1.80;;;15.80;99.90;;;;;;4967885;28;20066;-80
2023/08/28 08:51:08;;;;;;;4.90;1.60;;;15.90;99.90;;;;;;4937709;28;20493;-82
2023/08/28 08:53:45;;;;;;;5.93;2.50;;;15.90;99.90;;;;;;4953255;28;20031;-83
2023/08/28 08:56:17;;;;;;;1.95;1.75;;;15.90;99.90;;;;;;4958121;28;20396;-85
2023/08/28 08:58:43;;;;;;;3.20;1.98;;;15.90;99.90;;;;;;4968520;28;20031;-81
2023/08/28 09:01:12;;;;;;;2.10;1.42;;;16.00;99.90;;;;;;4967435;28;20439;-81
2023/08/28 09:03:38;;;;;;;4.30;1.75;;;16.00;99.90;;;;;;4964910;28;20392;-82
2023/08/28 09:06:15;;;;;;;3.75;1.23;;;16.10;99.90;;;;;;4959893;28;20026;-84
2023/08/28 09:08:42;;;;;;;1.73;1.35;;;16.00;99.90;;;;;;4965075;28;20053;-83
2023/08/28 09:11:11;;;;;;;1.17;1.08;;;16.00;99.90;;;;;;4966032;28;20038;-84
2023/08/28 09:13:38;;;;;;;2.00;1.23;;;16.00;99.90;;;;;;4957208;28;20055;-82
2023/08/28 09:16:04;;;;;;;5.15;1.60;;;16.00;99.90;;;;;;4965376;28;20022;-82
2023/08/28 09:18:30;;;;;;;2.22;1.17;;;16.00;99.90;;;;;;4963126;28;20035;-82
2023/08/28 09:21:14;;;;;;;3.90;1.63;;;16.00;99.90;;;;;;4964598;28;20061;-81
2023/08/28 09:23:49;;;;;;;2.08;1.05;;;16.10;99.90;;;;;;4967221;28;20031;-84
2023/08/28 09:26:22;;;;;;;1.30;1.20;;;16.20;99.90;;;;;;4967853;28;20252;-82
2023/08/28 09:29:09;;;;;;;2.45;1.17;;;16.20;99.90;;;;;;4967458;28;20282;-82
2023/08/28 09:31:36;;;;;;;2.00;1.30;;;16.20;99.90;;;;;;4965892;28;20035;-82
2023/08/28 09:34:07;;;;;;;2.60;1.20;;;16.20;99.90;;;;;;4968462;28;20078;-82
2023/08/28 09:36:35;;;;;;;2.58;1.52;;;16.20;99.90;;;;;;4968046;28;20058;-82
2023/08/28 09:39:02;;;;;;;2.60;1.80;;;16.30;99.90;;;;;;4949404;28;20384;-82
2023/08/28 09:41:48;;;;;;;2.88;1.10;;;16.30;99.90;;;;;;4967863;28;20030;-82
2023/08/28 09:44:18;;;;;;;2.92;1.20;;;16.40;99.90;;;;;;4965618;28;20057;-83
2023/08/28 09:46:46;;;;;;;2.58;1.17;;;16.40;99.90;;;;;;4965814;28;20161;-82
2023/08/28 09:49:13;;;;;;;1.00;0.90;;;16.50;99.90;;;;;;4963409;28;20039;-82
2023/08/28 09:51:42;;;;;;;4.30;1.33;;;16.50;99.90;;;;;;4955468;28;20066;-81
2023/08/28 09:54:13;;;;;;;4.07;1.10;;;16.50;99.90;;;;;;4951265;28;20032;-82
2023/08/28 09:56:41;;;;;;;1.23;0.90;;;16.50;99.90;;;;;;4956245;28;20023;-82
2023/08/28 09:59:15;;;;;;;2.08;1.17;;;16.50;99.90;;;;;;4965541;28;20066;-82
2023/08/28 10:01:41;;;;;;;2.25;1.30;;;16.50;99.90;;;;;;4961011;28;20035;-82
2023/08/28 10:04:15;;;;;;;2.85;1.10;;;16.60;99.90;;;;;;4967240;28;20444;-82
2023/08/28 10:06:49;;;;;;;1.30;1.20;;;16.50;99.90;;;;;;4964592;28;20321;-82
2023/08/28 10:09:19;;;;;;;4.95;1.33;;;16.50;99.90;;;;;;4964050;28;20094;-81
2023/08/28 10:11:46;;;;;;;2.80;1.15;;;16.60;99.90;;;;;;4942424;28;20023;-82
2023/08/28 10:14:13;;;;;;;2.65;1.20;;;16.70;99.90;;;;;;4964432;28;20043;-84
2023/08/28 10:16:44;;;;;;;3.28;1.40;;;16.70;99.90;;;;;;4964044;28;20508;-83
2023/08/28 10:19:21;;;;;;;2.30;1.00;;;16.70;99.90;;;;;;4966677;28;20038;-82
2023/08/28 10:21:50;;;;;;;2.17;1.35;;;16.80;99.90;;;;;;4957309;28;20540;-81
2023/08/28 10:24:17;;;;;;;2.40;0.80;;;16.80;99.90;;;;;;4951562;28;20039;-80
2023/08/28 10:26:44;;;;;;;2.20;1.02;;;16.80;99.90;;;;;;4958950;28;20081;-80
2023/08/28 10:29:14;;;;;;;3.95;0.90;;;16.90;99.90;;;;;;4960906;28;20018;-85
2023/08/28 10:31:40;;;;;;;2.78;1.05;;;16.90;99.90;;;;;;4958595;28;20038;-84
2023/08/28 10:34:09;;;;;;;2.08;0.98;;;16.90;99.90;;;;;;4965145;28;20042;-84
2023/08/28 10:36:39;;;;;;;4.00;0.90;;;16.90;99.90;;;;;;4959194;28;20038;-85
2023/08/28 10:39:05;;;;;;;3.22;1.42;;;17.00;99.90;;;;;;4965618;28;20256;-82
2023/08/28 10:41:33;;;;;;;10.73;1.55;;;17.00;99.90;;;;;;4964958;28;20053;-81
2023/08/28 10:44:03;;;;;;;6.22;1.33;;;16.90;99.90;;;;;;4966192;28;20552;-82
2023/08/28 10:46:28;;;;;;;4.40;1.40;;;17.00;99.90;;;;;;4960732;28;20034;-82
2023/08/28 10:49:04;;;;;;;3.53;1.20;;;17.00;99.90;;;;;;4963490;28;20035;-82
2023/08/28 10:51:36;;;;;;;1.52;1.40;;;17.00;99.90;;;;;;4951154;28;20584;-82
2023/08/28 10:54:06;;;;;;;4.25;1.45;;;17.00;99.90;;;;;;4954714;28;20042;-82
2023/08/28 10:56:34;;;;;;;3.25;1.85;;;17.10;99.90;;;;;;4948650;28;20567;-82
2023/08/28 10:59:25;;;;;;;4.53;1.33;;;17.10;99.90;;;;;;4977555;28;20284;-85
2023/08/28 11:01:55;;;;;;;2.45;1.17;;;17.20;99.90;;;;;;4970812;28;20101;-83
2023/08/28 11:04:22;;;;;;;1.85;1.10;;;17.10;99.90;;;;;;4951750;28;20031;-82
2023/08/28 11:06:48;;;;;;;4.65;1.40;;;17.10;99.90;;;;;;4959549;28;20070;-82
2023/08/28 11:09:28;;;;;;;3.25;1.33;;;17.00;99.90;;;;;;4970765;28;20085;-83
2023/08/28 11:11:57;;;;;;;1.83;1.30;;;17.10;99.90;;;;;;4970308;28;20034;-82
2023/08/28 11:14:23;;;;;;;4.40;1.30;;;17.10;99.90;;;;;;4960203;28;20448;-82
2023/08/28 11:16:49;;;;;;;3.85;1.45;;;17.20;99.90;;;;;;4966292;28;20089;-82
2023/08/28 11:19:17;;;;;;;4.22;1.00;;;17.20;99.90;;;;;;4969764;28;20026;-82
2023/08/28 11:21:42;;;;;;;6.38;1.17;;;17.20;99.90;;;;;;4972353;28;20121;-82
2023/08/28 11:24:23;;;;;;;1.55;1.00;;;17.20;99.90;;;;;;4977664;28;20110;-82
2023/08/28 11:26:49;;;;;;;6.28;1.52;;;17.30;99.90;;;;;;4973653;28;20473;-82
2023/08/28 11:29:26;;;;;;;2.70;1.40;;;17.20;99.90;;;;;;4962157;28;20026;-82
2023/08/28 11:31:51;;;;;;;1.95;1.35;;;17.20;99.90;;;;;;4967884;28;20038;-82
2023/08/28 11:34:17;;;;;;;2.92;1.10;;;17.30;99.90;;;;;;4964987;28;20089;-82
2023/08/28 11:36:42;;;;;;;3.63;1.00;;;17.20;99.90;;;;;;4957558;28;20031;-82
2023/08/28 11:39:23;;;;;;;1.08;0.73;;;17.30;99.90;;;;;;4962465;28;20180;-83
2023/08/28 11:41:49;;;;;;;1.58;0.85;;;17.20;99.90;;;;;;4959447;28;20547;-84
2023/08/28 11:44:15;;;;;;;2.67;1.08;;;17.30;99.90;;;;;;4961576;28;20081;-82
2023/08/28 11:46:41;;;;;;;1.27;0.80;;;17.30;99.90;;;;;;4970581;28;20047;-82
2023/08/28 11:49:07;;;;;;;2.25;1.20;;;17.30;99.90;;;;;;4965232;28;20031;-82
2023/08/28 11:51:32;;;;;;;1.17;0.95;;;17.30;99.90;;;;;;4964348;28;20120;-82
2023/08/28 11:53:58;;;;;;;3.55;1.02;;;17.30;99.90;;;;;;4964673;28;20069;-82
2023/08/28 11:56:24;;;;;;;2.55;1.02;;;17.40;99.90;;;;;;4947501;28;20067;-83
2023/08/28 11:58:50;;;;;;;3.85;1.30;;;17.40;99.90;;;;;;4948691;28;20031;-82
2023/08/28 12:01:19;;;;;;;0.73;0.73;;;17.40;99.90;;;;;;4959136;28;20110;-84
2023/08/28 12:03:45;;;;;;;7.40;1.45;;;17.40;99.90;;;;;;4969408;28;20402;-82
2023/08/28 12:06:14;;;;;;;3.50;1.33;;;17.50;99.90;;;;;;4967671;28;20027;-82
2023/08/28 12:08:46;;;;;;;5.68;1.70;;;17.50;99.90;;;;;;4970143;28;20484;-82
2023/08/28 12:11:13;;;;;;;11.35;1.40;;;17.60;99.90;;;;;;4956901;28;20456;-84
2023/08/28 12:13:39;;;;;;;3.17;1.10;;;17.60;99.90;;;;;;4960496;28;20444;-83
2023/08/28 12:16:15;;;;;;;1.33;0.90;;;17.70;99.90;;;;;;4966970;28;20035;-83
2023/08/28 12:18:52;;;;;;;10.18;1.33;;;17.80;99.90;;;;;;4966184;28;20421;-85
2023/08/28 12:21:50;;;;;;;4.85;1.13;;;17.90;99.90;;;;;;4962231;28;20156;-82
2023/08/28 12:24:16;;;;;;;3.28;1.27;;;17.90;99.90;;;;;;4919013;28;20086;-83
2023/08/28 12:26:43;;;;;;;3.10;1.52;;;17.90;99.90;;;;;;4965944;28;20027;-82
2023/08/28 12:29:09;;;;;;;3.05;1.10;;;18.00;99.90;;;;;;4959596;28;20039;-83
2023/08/28 12:31:36;;;;;;;6.55;0.98;;;18.00;99.90;;;;;;4966078;28;20471;-82
2023/08/28 12:34:11;;;;;;;2.03;0.90;;;17.90;99.90;;;;;;4960178;28;20027;-83
2023/08/28 12:36:48;;;;;;;1.48;1.02;;;17.90;99.90;;;;;;4967906;28;20022;-83
2023/08/28 12:39:19;;;;;;;2.45;1.05;;;17.90;99.90;;;;;;4947199;28;20444;-83
2023/08/28 12:41:50;;;;;;;0.80;0.80;;;17.90;99.90;;;;;;4965558;28;20133;-85
2023/08/28 12:44:16;;;;;;;4.35;1.10;;;17.90;99.90;;;;;;4963108;28;20893;-82
2023/08/28 12:46:42;;;;;;;2.38;1.23;;;17.90;99.90;;;;;;4967375;28;20031;-83
2023/08/28 12:49:08;;;;;;;2.63;1.40;;;17.90;99.90;;;;;;4965137;28;20031;-82
2023/08/28 12:51:34;;;;;;;1.20;1.00;;;17.90;99.90;;;;;;4971146;28;20395;-82